Time;durP1;ratioP1;P1;durP2;ratioP2;P2;SDS_P1;SDS_P2;PMS_P1;PMS_P2;Temp;Humidity;BMP_temperature;BMP_pressure;BME280_temperature;BME280_humidity;BME280_pressure;Samples;Min_cycle;Max_cycle;Signal;HPM_P1;HPM_P2
2022/02/01 00:00:04;;;;;;;9.25;1.83;;;;;;;0.16;100.00;96570.06;2063249;28;20248;-62
2022/02/01 00:02:17;;;;;;;10.15;1.58;;;;;;;0.18;100.00;96568.28;2063643;28;20205;-62
2022/02/01 00:03:20;;;;;;;8.88;1.60;;;;;;;0.05;100.00;96548.91;2062269;28;20704;-62
2022/02/01 00:04:34;;;;;;;4.50;1.70;;;;;;;0.18;100.00;96581.16;2063475;28;20235;-62
2022/02/01 00:06:52;;;;;;;6.10;2.13;;;;;;;-0.02;100.00;96553.38;2063280;28;20680;-62
2022/02/01 00:08:06;;;;;;;8.95;1.88;;;;;;;0.05;100.00;96566.91;2063629;28;20240;-62
2022/02/01 00:09:34;;;;;;;9.00;2.67;;;;;;;0.00;100.00;96579.09;2062977;28;20208;-62
2022/02/01 00:12:03;;;;;;;7.38;2.17;;;;;;;-0.08;100.00;96588.72;2063629;28;20194;-62
2022/02/01 00:14:15;;;;;;;4.82;1.73;;;;;;;-0.08;100.00;96583.59;2063177;28;20196;-62
2022/02/01 00:16:01;;;;;;;9.13;2.15;;;;;;;-0.14;100.00;96582.00;2063687;28;20651;-62
2022/02/01 00:18:26;;;;;;;8.90;1.70;;;;;;;-0.15;100.00;96598.38;2063657;28;20209;-62
2022/02/01 00:19:50;;;;;;;8.00;1.63;;;;;;;-0.16;100.00;96595.81;2060713;28;20903;-62
2022/02/01 00:35:32;;;;;;;5.78;2.20;;;;;;;-0.27;100.00;96625.28;2063671;28;20690;-61
2022/02/01 00:36:38;;;;;;;5.40;1.90;;;;;;;-0.30;100.00;96624.50;2064507;28;20659;-60
2022/02/01 00:37:55;;;;;;;4.60;1.85;;;;;;;-0.31;100.00;96623.66;2063378;28;20208;-61
2022/02/01 00:40:00;;;;;;;5.70;2.63;;;;;;;-0.31;100.00;96620.25;2064205;28;20252;-61
2022/02/01 00:41:05;;;;;;;4.53;1.77;;;;;;;-0.32;100.00;96608.25;2064587;28;20225;-61
2022/02/01 00:42:06;;;;;;;9.85;2.28;;;;;;;-0.21;100.00;96626.84;2064439;28;20196;-61
2022/02/01 00:43:08;;;;;;;8.93;2.35;;;;;;;-0.27;100.00;96614.13;2068188;28;20207;-61
2022/02/01 00:44:10;;;;;;;16.55;4.05;;;;;;;-0.21;100.00;96619.97;2067563;28;20202;-61
2022/02/01 00:45:11;;;;;;;4.60;2.15;;;;;;;-0.16;100.00;96619.00;2064875;28;20205;-61
2022/02/01 00:46:12;;;;;;;13.25;1.83;;;;;;;-0.25;100.00;96597.75;2064871;28;20733;-60
2022/02/01 00:47:15;;;;;;;10.73;2.10;;;;;;;-0.14;100.00;96610.34;2063886;28;20811;-61
2022/02/01 00:48:17;;;;;;;10.80;2.22;;;;;;;-0.09;100.00;96618.78;2064418;28;20201;-61
2022/02/01 00:49:18;;;;;;;7.15;2.08;;;;;;;-0.05;100.00;96633.28;2064402;28;20761;-61
2022/02/01 00:50:20;;;;;;;9.18;2.47;;;;;;;-0.04;100.00;96641.84;2064877;28;20221;-61
2022/02/01 00:51:21;;;;;;;11.93;4.18;;;;;;;-0.05;100.00;96640.16;2064110;28;20196;-61
2022/02/01 00:52:25;;;;;;;4.13;1.77;;;;;;;0.00;100.00;96643.47;2064823;28;20211;-61
2022/02/01 00:53:27;;;;;;;8.73;2.00;;;;;;;-0.06;100.00;96636.75;2064685;28;20211;-62
2022/02/01 00:54:29;;;;;;;12.07;1.90;;;;;;;-0.01;100.00;96642.59;2064426;28;20218;-61
2022/02/01 00:55:30;;;;;;;9.27;1.67;;;;;;;0.10;100.00;96652.63;2062873;28;20205;-61
2022/02/01 00:56:32;;;;;;;9.18;2.40;;;;;;;0.11;100.00;96651.75;2064944;28;20220;-61
2022/02/01 00:57:34;;;;;;;8.95;2.15;;;;;;;0.14;100.00;96656.81;2065136;28;20202;-61
2022/02/01 00:58:36;;;;;;;9.70;1.83;;;;;;;0.10;100.00;96644.91;2064426;28;20243;-62
2022/02/01 00:59:38;;;;;;;11.07;2.50;;;;;;;0.18;100.00;96655.84;2063574;28;20225;-62
2022/02/01 01:00:39;;;;;;;10.80;2.15;;;;;;;0.23;100.00;96650.56;2065174;28;20570;-62
2022/02/01 01:01:41;;;;;;;8.82;2.53;;;;;;;0.23;100.00;96657.47;2065142;28;20206;-62
2022/02/01 01:02:44;;;;;;;8.27;1.80;;;;;;;0.26;100.00;96662.53;2064977;28;20242;-62
2022/02/01 01:03:46;;;;;;;9.85;2.63;;;;;;;0.18;100.00;96657.59;2064925;28;20203;-62
2022/02/01 01:04:47;;;;;;;9.02;2.45;;;;;;;0.22;100.00;96660.91;2064356;28;20218;-62
2022/02/01 01:05:50;;;;;;;9.75;2.00;;;;;;;0.03;100.00;96627.94;2064708;28;20556;-62
2022/02/01 01:06:51;;;;;;;13.77;2.50;;;;;;;0.29;100.00;96667.59;2064745;28;20638;-61
2022/02/01 01:07:53;;;;;;;11.60;1.85;;;;;;;0.31;100.00;96674.38;2064630;28;20237;-62
2022/02/01 01:08:55;;;;;;;6.55;1.98;;;;;;;0.31;100.00;96673.56;2064931;28;20559;-62
2022/02/01 01:09:58;;;;;;;5.82;1.85;;;;;;;0.38;100.00;96680.25;2062870;28;20229;-62
2022/02/01 01:10:59;;;;;;;6.15;1.80;;;;;;;0.36;100.00;96682.00;2064957;28;20665;-62
2022/02/01 01:12:01;;;;;;;13.73;2.40;;;;;;;0.35;99.95;96681.19;2064789;28;20205;-61
2022/02/01 01:13:51;;;;;;;8.73;1.50;;;;;;;0.34;99.65;96679.47;2064682;28;20223;-62
2022/02/01 01:15:29;;;;;;;16.40;2.58;;;;;;;0.41;99.17;96672.41;2064811;28;20591;-62
2022/02/01 01:43:56;;;;;;;19.10;2.33;;;;;;;0.25;99.88;96699.47;2063162;28;20213;-61
2022/02/01 01:45:06;;;;;;;5.25;2.10;;;;;;;0.21;99.92;96685.81;2063903;28;20297;-62
2022/02/01 01:54:10;;;;;;;12.45;2.67;;;;;;;0.15;99.69;96686.00;2065127;28;20592;-61
2022/02/01 01:55:14;;;;;;;14.50;2.13;;;;;;;0.31;100.00;96727.66;2072468;28;20204;-61
2022/02/01 01:56:16;;;;;;;14.63;1.92;;;;;;;0.33;100.00;96721.59;2072555;28;20287;-61
2022/02/01 01:57:19;;;;;;;12.10;2.50;;;;;;;0.30;100.00;96720.81;2072367;28;20209;-61
2022/02/01 01:58:22;;;;;;;11.10;2.83;;;;;;;0.30;100.00;96733.72;2071693;28;20201;-61
2022/02/01 01:59:25;;;;;;;10.35;2.53;;;;;;;0.29;100.00;96737.16;2071907;28;20230;-61
2022/02/01 02:01:47;;;;;;;11.55;2.35;;;;;;;0.32;100.00;96737.94;2071787;28;20201;-60
2022/02/01 02:02:49;;;;;;;5.22;2.05;;;;;;;0.32;99.68;96732.78;2072524;28;20200;-60
2022/02/01 02:03:51;;;;;;;11.40;2.70;;;;;;;0.25;99.60;96717.50;2072311;28;20220;-60
2022/02/01 02:04:52;;;;;;;8.85;2.50;;;;;;;0.32;99.19;96743.06;2072081;28;20232;-60
2022/02/01 02:05:54;;;;;;;8.50;3.15;;;;;;;0.34;99.17;96740.47;2072409;28;20193;-60
2022/02/01 02:06:55;;;;;;;21.13;2.95;;;;;;;0.32;99.56;96735.34;2072344;28;20197;-60
2022/02/01 02:07:57;;;;;;;11.48;3.28;;;;;;;0.37;99.35;96730.94;2070872;28;20243;-60
2022/02/01 02:09:05;;;;;;;21.02;2.47;;;;;;;0.37;99.05;96735.22;2072451;28;20193;-60
2022/02/01 02:10:08;;;;;;;14.80;2.55;;;;;;;0.37;98.93;96722.34;2071961;28;20239;-60
2022/02/01 02:11:17;;;;;;;22.27;2.70;;;;;;;0.34;99.09;96718.13;2071581;28;20193;-60
2022/02/01 02:12:37;;;;;;;8.73;2.53;;;;;;;0.35;98.83;96714.66;2072478;28;20204;-59
2022/02/01 02:15:10;;;;;;;12.68;2.25;;;;;;;0.28;98.84;96714.88;2071467;28;20216;-60
2022/02/01 02:16:11;;;;;;;7.78;2.20;;;;;;;0.32;98.95;96713.91;2074695;28;20190;-59
2022/02/01 02:17:13;;;;;;;13.18;2.58;;;;;;;0.18;99.03;96685.94;2074417;28;21154;-60
2022/02/01 02:18:18;;;;;;;9.15;2.83;;;;;;;0.33;99.27;96721.59;2072663;28;20719;-60
2022/02/01 02:19:23;;;;;;;13.57;2.75;;;;;;;0.27;99.20;96703.69;2071801;28;20202;-60
2022/02/01 02:20:24;;;;;;;14.13;3.25;;;;;;;0.14;99.37;96703.19;2072400;28;20544;-59
2022/02/01 02:21:25;;;;;;;15.30;2.55;;;;;;;0.24;99.93;96739.03;2072408;28;20201;-60
2022/02/01 02:22:27;;;;;;;6.78;1.90;;;;;;;0.13;99.63;96737.53;2071274;28;20201;-60
2022/02/01 02:23:28;;;;;;;15.02;2.83;;;;;;;0.23;99.53;96747.63;2072281;28;20202;-60
2022/02/01 02:24:33;;;;;;;14.30;3.13;;;;;;;0.24;99.54;96752.75;2071739;28;20620;-60
2022/02/01 02:25:36;;;;;;;21.33;3.33;;;;;;;0.24;99.31;96749.31;2072295;28;20304;-60
2022/02/01 02:26:38;;;;;;;11.43;2.20;;;;;;;0.16;99.26;96731.50;2072292;28;20244;-60
2022/02/01 02:27:40;;;;;;;11.88;2.72;;;;;;;0.28;98.71;96754.34;2071643;28;20194;-60
2022/02/01 02:28:43;;;;;;;11.27;2.22;;;;;;;0.28;98.69;96761.25;2072189;28;20198;-60
2022/02/01 02:29:45;;;;;;;17.42;2.50;;;;;;;0.28;99.22;96749.19;2071596;28;20226;-61
2022/02/01 02:30:49;;;;;;;22.80;3.03;;;;;;;0.29;99.16;96744.88;2072363;28;20204;-60
2022/02/01 02:31:51;;;;;;;8.48;2.03;;;;;;;0.25;99.57;96754.41;2072367;28;20204;-60
2022/02/01 02:32:53;;;;;;;9.93;2.50;;;;;;;0.27;99.02;96762.13;2072236;28;20287;-60
2022/02/01 02:34:06;;;;;;;14.98;2.90;;;;;;;0.22;98.91;96757.09;2072163;28;20201;-60
2022/02/01 02:35:08;;;;;;;18.80;2.78;;;;;;;0.23;99.10;96766.50;2071234;28;20929;-60
2022/02/01 02:36:17;;;;;;;10.68;2.63;;;;;;;0.17;98.94;96759.75;2070857;28;20197;-60
2022/02/01 02:37:26;;;;;;;15.80;3.13;;;;;;;-0.22;98.99;96694.66;2072183;28;20208;-60
2022/02/01 02:38:43;;;;;;;9.73;2.30;;;;;;;0.18;99.25;96770.94;2072147;28;20197;-60
2022/02/01 02:40:01;;;;;;;8.88;2.35;;;;;;;0.22;99.49;96777.69;2071527;28;20228;-60
2022/02/01 02:42:34;;;;;;;14.20;2.40;;;;;;;0.23;99.43;96779.38;2071596;28;20207;-61
2022/02/01 02:45:09;;;;;;;15.73;2.50;;;;;;;0.17;99.67;96782.09;2070692;28;20290;-60
2022/02/01 02:46:11;;;;;;;13.73;2.97;;;;;;;0.23;99.48;96784.53;2070996;28;20198;-60
2022/02/01 02:47:12;;;;;;;18.05;2.83;;;;;;;0.19;98.74;96791.47;2072121;28;20201;-60
2022/02/01 02:48:14;;;;;;;21.05;3.45;;;;;;;0.19;99.06;96788.06;2071928;28;20201;-60
2022/02/01 02:49:18;;;;;;;14.05;2.20;;;;;;;0.24;98.84;96793.97;2071673;28;20205;-60
2022/02/01 02:50:22;;;;;;;25.30;3.40;;;;;;;0.25;98.38;96794.78;2071958;28;20212;-60
2022/02/01 02:51:24;;;;;;;16.48;2.72;;;;;;;0.24;98.79;96788.81;2071662;28;20197;-60
2022/02/01 02:52:26;;;;;;;13.95;3.28;;;;;;;0.23;98.64;96789.69;2071582;28;20200;-60
2022/02/01 02:53:28;;;;;;;13.38;2.40;;;;;;;0.21;99.32;96790.59;2072020;28;20283;-60
2022/02/01 02:54:30;;;;;;;12.60;2.40;;;;;;;0.21;98.85;96788.03;2071544;28;20225;-60
2022/02/01 02:55:33;;;;;;;17.00;2.65;;;;;;;0.15;98.61;96789.88;2071837;28;20244;-60
2022/02/01 02:56:35;;;;;;;8.60;2.55;;;;;;;0.19;98.86;96806.94;2071892;28;20201;-60
2022/02/01 02:57:37;;;;;;;13.65;2.25;;;;;;;0.14;99.18;96802.81;2071564;28;20297;-61
2022/02/01 02:58:39;;;;;;;14.40;2.25;;;;;;;0.23;99.26;96810.28;2072096;28;20202;-60
2022/02/01 02:59:40;;;;;;;14.48;2.70;;;;;;;0.13;99.42;96794.19;2071496;28;20224;-60
2022/02/01 03:00:43;;;;;;;13.45;2.20;;;;;;;0.30;98.94;96813.56;2071961;28;20201;-61
2022/02/01 03:01:47;;;;;;;24.10;2.97;;;;;;;0.31;99.36;96807.53;2071945;28;20202;-61
2022/02/01 03:02:49;;;;;;;15.15;2.95;;;;;;;0.28;98.90;96812.78;2071329;28;20202;-60
2022/02/01 03:03:51;;;;;;;11.73;2.30;;;;;;;0.26;99.25;96804.22;2076206;28;20203;-61
2022/02/01 03:04:52;;;;;;;15.82;2.47;;;;;;;0.33;99.15;96805.75;2075014;28;20221;-60
2022/02/01 03:05:54;;;;;;;13.75;2.90;;;;;;;0.23;99.29;96788.84;2072019;28;20228;-61
2022/02/01 03:06:56;;;;;;;17.50;2.00;;;;;;;0.21;99.24;96781.13;2072151;28;20551;-60
2022/02/01 03:07:58;;;;;;;17.50;3.38;;;;;;;0.16;99.14;96773.53;2071764;28;20233;-60
2022/02/01 03:09:01;;;;;;;14.32;2.35;;;;;;;0.24;99.14;96799.13;2070897;28;20193;-60
2022/02/01 03:10:02;;;;;;;14.23;2.63;;;;;;;0.18;99.57;96791.53;2069924;28;20669;-61
2022/02/01 03:11:10;;;;;;;8.45;2.67;;;;;;;0.19;99.53;96794.06;2071951;28;20202;-61
2022/02/01 03:12:16;;;;;;;13.02;2.25;;;;;;;0.21;99.73;96793.19;2071290;28;20198;-60
2022/02/01 03:13:24;;;;;;;11.68;2.20;;;;;;;0.14;99.93;96783.03;2071805;28;20301;-60
2022/02/01 03:15:55;;;;;;;10.75;2.40;;;;;;;0.09;99.87;96774.56;2071633;28;20201;-61
2022/02/01 03:19:52;;;;;;;6.63;2.42;;;;;;;0.15;99.68;96774.41;2071525;28;20224;-60
2022/02/01 03:20:54;;;;;;;22.08;2.22;;;;;;;0.02;99.20;96755.00;2071156;28;20225;-60
2022/02/01 03:21:55;;;;;;;14.98;2.03;;;;;;;0.25;99.00;96779.34;2067532;28;20194;-60
2022/02/01 03:22:57;;;;;;;16.45;2.42;;;;;;;0.21;99.11;96782.88;2075814;28;20197;-61
2022/02/01 03:23:58;;;;;;;14.73;2.67;;;;;;;0.03;98.96;96756.69;2071866;28;20205;-61
2022/02/01 03:25:02;;;;;;;16.08;2.10;;;;;;;0.18;99.56;96786.38;2071511;28;20926;-60
2022/02/01 03:26:03;;;;;;;11.30;2.20;;;;;;;0.22;99.02;96795.72;2072039;28;20699;-60
2022/02/01 03:27:05;;;;;;;17.27;2.58;;;;;;;0.09;99.21;96774.56;2071691;28;20231;-60
2022/02/01 03:28:07;;;;;;;21.63;2.72;;;;;;;0.16;99.20;96783.84;2071973;28;20567;-60
2022/02/01 03:29:08;;;;;;;18.90;2.40;;;;;;;0.22;98.91;96810.31;2071450;28;20228;-60
2022/02/01 03:30:10;;;;;;;14.10;2.42;;;;;;;0.16;98.98;96803.59;2071731;28;20196;-61
2022/02/01 03:31:11;;;;;;;17.35;2.60;;;;;;;0.18;99.17;96818.13;2071856;28;20193;-61
2022/02/01 03:32:13;;;;;;;14.52;2.63;;;;;;;0.18;99.03;96817.28;2072005;28;20644;-60
2022/02/01 03:33:15;;;;;;;18.17;2.30;;;;;;;0.17;99.02;96821.56;2070069;28;20232;-60
2022/02/01 03:34:17;;;;;;;18.77;2.58;;;;;;;0.09;98.94;96807.22;2071392;28;20201;-60
2022/02/01 03:35:19;;;;;;;15.95;2.70;;;;;;;0.13;99.05;96822.53;2070903;28;20428;-61
2022/02/01 03:36:20;;;;;;;16.35;2.72;;;;;;;-0.34;99.10;96738.69;2071866;28;20371;-61
2022/02/01 03:37:22;;;;;;;22.30;2.75;;;;;;;0.13;98.94;96817.38;2072057;28;20198;-61
2022/02/01 03:38:25;;;;;;;17.95;2.75;;;;;;;0.13;99.12;96814.81;2071676;28;20258;-60
2022/02/01 03:39:27;;;;;;;12.73;2.60;;;;;;;0.15;98.58;96812.22;2071786;28;20228;-61
2022/02/01 03:40:29;;;;;;;29.20;3.38;;;;;;;0.24;99.01;96816.31;2071632;28;20206;-60
2022/02/01 03:41:31;;;;;;;8.70;2.00;;;;;;;0.01;99.17;96794.50;2072372;28;20197;-60
2022/02/01 03:42:32;;;;;;;16.23;2.92;;;;;;;0.15;99.18;96820.78;2070433;28;20293;-61
2022/02/01 03:43:34;;;;;;;25.35;2.83;;;;;;;0.09;99.20;96818.34;2072326;28;20795;-61
2022/02/01 03:44:35;;;;;;;18.23;1.70;;;;;;;0.18;98.76;96830.19;2071135;28;20312;-61
2022/02/01 03:45:37;;;;;;;20.30;2.60;;;;;;;0.17;99.19;96833.63;2071718;28;20194;-61
2022/02/01 03:46:43;;;;;;;20.15;4.18;;;;;;;0.13;98.70;96827.69;2071881;28;20223;-61
2022/02/01 03:47:45;;;;;;;15.52;2.55;;;;;;;0.19;98.75;96822.38;2071718;28;20797;-61
2022/02/01 03:48:47;;;;;;;24.25;3.20;;;;;;;0.21;98.64;96830.09;2071797;28;20205;-61
2022/02/01 03:49:49;;;;;;;21.63;3.13;;;;;;;0.25;98.48;96828.28;2071348;28;20228;-61
2022/02/01 03:50:50;;;;;;;13.93;2.58;;;;;;;0.16;98.37;96832.78;2071996;28;20201;-61
2022/02/01 03:51:51;;;;;;;20.13;2.60;;;;;;;0.17;98.35;96842.19;2071851;28;20521;-61
2022/02/01 03:52:53;;;;;;;16.63;2.42;;;;;;;0.15;98.28;96831.06;2071908;28;20592;-61
2022/02/01 03:53:54;;;;;;;17.20;3.00;;;;;;;-0.09;98.34;96782.75;2071824;28;20232;-61
2022/02/01 03:54:56;;;;;;;15.93;3.13;;;;;;;0.13;97.81;96825.13;2071230;28;20602;-61
2022/02/01 03:55:57;;;;;;;13.35;3.13;;;;;;;-0.01;97.43;96791.13;2071640;28;20388;-60
2022/02/01 03:57:00;;;;;;;22.08;4.15;;;;;;;0.18;97.43;96830.19;2072335;28;20305;-61
2022/02/01 03:58:03;;;;;;;15.55;3.38;;;;;;;0.13;97.65;96829.44;2070108;28;20197;-61
2022/02/01 03:59:04;;;;;;;14.50;2.55;;;;;;;0.10;98.04;96820.06;2071706;28;20540;-60
2022/02/01 04:00:07;;;;;;;27.42;3.20;;;;;;;0.16;96.78;96829.38;2071904;28;20639;-61
2022/02/01 04:01:08;;;;;;;12.40;2.47;;;;;;;0.08;96.92;96819.25;2072079;28;20198;-60
2022/02/01 04:02:12;;;;;;;21.90;2.30;;;;;;;0.07;96.85;96829.56;2070566;28;20205;-61
2022/02/01 04:03:14;;;;;;;13.02;2.45;;;;;;;0.09;96.36;96833.81;2073495;28;20272;-61
2022/02/01 04:04:16;;;;;;;14.52;2.15;;;;;;;0.08;96.59;96837.28;2072908;28;20280;-61
2022/02/01 04:05:17;;;;;;;11.95;2.67;;;;;;;0.00;97.20;96828.88;2072649;28;20204;-61
2022/02/01 04:06:19;;;;;;;17.27;3.30;;;;;;;-0.02;97.20;96812.59;2072738;28;20229;-61
2022/02/01 04:07:21;;;;;;;21.38;2.67;;;;;;;0.11;96.48;96832.03;2073168;28;20645;-61
2022/02/01 04:08:23;;;;;;;15.20;3.13;;;;;;;0.09;96.44;96838.13;2073315;28;20194;-61
2022/02/01 04:09:27;;;;;;;19.85;2.78;;;;;;;0.08;96.61;96847.56;2072619;28;20546;-61
2022/02/01 04:10:28;;;;;;;13.55;2.63;;;;;;;0.08;96.49;96844.13;2073147;28;20201;-61
2022/02/01 04:11:30;;;;;;;22.17;3.58;;;;;;;0.05;96.53;96845.06;2072999;28;20198;-61
2022/02/01 04:12:31;;;;;;;20.48;2.72;;;;;;;0.09;96.63;96875.00;2072939;28;20212;-61
2022/02/01 04:13:33;;;;;;;10.15;2.33;;;;;;;0.12;95.53;96869.81;2072008;28;20194;-61
2022/02/01 04:14:35;;;;;;;20.23;2.60;;;;;;;0.08;95.87;96857.88;2072748;28;20255;-61
2022/02/01 04:15:37;;;;;;;12.40;2.08;;;;;;;0.14;95.60;96880.91;2072981;28;20214;-61
2022/02/01 04:16:38;;;;;;;15.13;2.40;;;;;;;0.03;95.27;96861.44;2072452;28;20639;-61
2022/02/01 04:17:40;;;;;;;32.17;4.82;;;;;;;0.07;95.69;96874.19;2073453;28;20297;-60
2022/02/01 04:18:42;;;;;;;22.98;3.20;;;;;;;0.09;95.50;96875.00;2073334;28;20204;-61
2022/02/01 04:19:45;;;;;;;13.63;2.55;;;;;;;0.09;95.36;96876.75;2070799;28;20252;-61
2022/02/01 04:20:47;;;;;;;14.63;2.92;;;;;;;0.07;95.37;96866.47;2073459;28;20207;-61
2022/02/01 04:22:01;;;;;;;12.27;2.53;;;;;;;0.06;94.49;96853.63;2073519;28;20839;-61
2022/02/01 04:23:04;;;;;;;16.13;2.30;;;;;;;0.10;95.19;96873.28;2072575;28;20193;-61
2022/02/01 04:24:05;;;;;;;12.90;2.65;;;;;;;0.09;94.99;96872.44;2072794;28;20194;-61
2022/02/01 04:25:07;;;;;;;24.98;3.35;;;;;;;0.07;95.07;96878.50;2073224;28;20208;-61
2022/02/01 04:26:09;;;;;;;18.33;3.60;;;;;;;0.05;94.26;96875.97;2073276;28;20198;-61
2022/02/01 04:27:24;;;;;;;26.88;2.95;;;;;;;0.05;93.95;96878.53;2073281;28;20205;-61
2022/02/01 04:28:25;;;;;;;16.05;3.00;;;;;;;0.02;93.79;96865.75;2073257;28;20196;-61
2022/02/01 04:29:27;;;;;;;18.95;2.65;;;;;;;0.03;94.08;96874.31;2072715;28;20225;-61
2022/02/01 04:30:28;;;;;;;19.88;2.65;;;;;;;0.03;94.21;96884.63;2073082;28;20429;-61
2022/02/01 04:31:30;;;;;;;14.55;2.60;;;;;;;-0.02;94.00;96882.13;2073139;28;20212;-61
2022/02/01 04:32:38;;;;;;;16.95;2.33;;;;;;;-0.06;93.67;96888.22;2073153;28;20201;-61
2022/02/01 04:33:39;;;;;;;17.08;3.47;;;;;;;-0.05;93.67;96902.81;2072455;28;20434;-61
2022/02/01 04:34:42;;;;;;;15.90;2.00;;;;;;;-0.09;93.90;96908.91;2072788;28;20221;-61
2022/02/01 04:35:43;;;;;;;21.38;3.67;;;;;;;-0.07;94.02;96902.00;2073360;28;20702;-61
2022/02/01 04:36:45;;;;;;;18.63;2.58;;;;;;;-0.08;93.44;96906.31;2073414;28;20602;-61
2022/02/01 04:37:47;;;;;;;14.40;3.20;;;;;;;-0.06;93.52;96904.53;2073415;28;20205;-61
2022/02/01 04:38:56;;;;;;;17.20;2.78;;;;;;;-0.09;93.43;96904.59;2073277;28;20198;-61
2022/02/01 04:39:59;;;;;;;15.68;3.30;;;;;;;-0.04;93.53;96899.34;2071832;28;20232;-61
2022/02/01 04:41:01;;;;;;;12.32;2.78;;;;;;;-0.04;93.40;96904.50;2073112;28;20572;-60
2022/02/01 04:42:02;;;;;;;11.40;1.95;;;;;;;-0.42;93.35;96832.34;2072993;28;20221;-61
2022/02/01 04:43:05;;;;;;;15.68;2.40;;;;;;;-0.15;92.47;96881.56;2073217;28;20247;-61
2022/02/01 04:44:07;;;;;;;13.52;2.58;;;;;;;-0.08;92.62;96896.00;2071471;28;20200;-61
2022/02/01 04:45:13;;;;;;;16.90;2.80;;;;;;;-0.09;92.94;96893.47;2073141;28;20202;-61
2022/02/01 04:46:15;;;;;;;22.65;2.28;;;;;;;-0.09;93.16;96890.88;2070720;28;20200;-61
2022/02/01 04:47:17;;;;;;;13.60;2.05;;;;;;;-0.10;92.98;96899.47;2073062;28;20197;-60
2022/02/01 04:48:18;;;;;;;27.10;2.65;;;;;;;-0.15;92.21;96886.72;2073100;28;20687;-60
2022/02/01 04:49:20;;;;;;;24.50;3.35;;;;;;;-0.16;92.19;96890.16;2072574;28;20216;-61
2022/02/01 04:50:25;;;;;;;13.48;2.00;;;;;;;-0.19;92.96;96885.09;2073034;28;20205;-60
2022/02/01 04:51:29;;;;;;;21.17;3.17;;;;;;;-0.34;92.96;96863.09;2072803;28;20204;-61
2022/02/01 04:52:31;;;;;;;14.10;3.13;;;;;;;-0.15;93.49;96893.59;2072948;28;20676;-60
2022/02/01 04:53:32;;;;;;;14.63;2.70;;;;;;;-0.33;93.34;96866.50;2073123;28;20641;-61
2022/02/01 04:54:34;;;;;;;11.90;1.88;;;;;;;-0.30;92.67;96890.44;2072495;28;20236;-60
2022/02/01 04:55:54;;;;;;;12.60;2.47;;;;;;;-0.23;92.53;96889.44;2076331;28;20220;-60
2022/02/01 04:56:56;;;;;;;16.25;2.22;;;;;;;-0.22;92.69;96883.44;2074546;28;20282;-61
2022/02/01 04:57:57;;;;;;;11.80;2.42;;;;;;;-0.26;93.24;96893.81;2076772;28;20201;-60
2022/02/01 04:58:58;;;;;;;10.45;2.40;;;;;;;-0.32;93.65;96893.94;2076331;28;20197;-61
2022/02/01 05:00:00;;;;;;;14.70;2.58;;;;;;;-0.20;92.82;96906.53;2072479;28;20218;-61
2022/02/01 05:01:02;;;;;;;22.55;3.15;;;;;;;-0.23;93.17;96912.63;2072846;28;20225;-61
2022/02/01 05:02:04;;;;;;;21.70;4.03;;;;;;;-0.25;93.00;96918.69;2072823;28;20244;-61
2022/02/01 05:03:06;;;;;;;22.80;2.63;;;;;;;-0.24;92.65;96915.22;2071930;28;20240;-61
2022/02/01 05:04:08;;;;;;;19.05;2.75;;;;;;;-0.48;92.33;96877.97;2072690;28;20200;-60
2022/02/01 05:05:10;;;;;;;19.45;2.65;;;;;;;-0.19;91.99;96917.72;2072810;28;20712;-61
2022/02/01 05:06:13;;;;;;;22.33;2.38;;;;;;;-0.22;91.79;96914.31;2072623;28;20630;-61
2022/02/01 05:07:19;;;;;;;10.05;2.00;;;;;;;-0.26;91.91;96919.56;2071490;28;20285;-61
2022/02/01 05:08:21;;;;;;;8.00;1.85;;;;;;;-0.26;91.44;96925.53;2071682;28;20205;-61
2022/02/01 05:09:23;;;;;;;15.30;2.88;;;;;;;-0.39;91.47;96895.81;2072409;28;20217;-61
2022/02/01 05:10:26;;;;;;;27.27;3.20;;;;;;;-0.26;91.12;96920.38;2072830;28;20198;-61
2022/02/01 05:11:28;;;;;;;19.75;3.72;;;;;;;-0.28;91.75;96911.84;2072839;28;20205;-61
2022/02/01 05:12:36;;;;;;;19.05;3.30;;;;;;;-0.23;91.68;96920.34;2072686;28;20213;-61
2022/02/01 05:14:49;;;;;;;24.38;3.45;;;;;;;-0.22;91.56;96916.03;2071311;28;20793;-60
2022/02/01 05:16:02;;;;;;;16.90;2.85;;;;;;;-0.25;90.92;96911.81;2072186;28;20815;-61
2022/02/01 05:17:04;;;;;;;22.33;2.90;;;;;;;-0.19;90.73;96917.72;2071733;28;20672;-61
2022/02/01 05:18:13;;;;;;;20.23;3.00;;;;;;;-0.25;90.60;96918.69;2071858;28;20255;-60
2022/02/01 05:19:25;;;;;;;15.68;2.78;;;;;;;-0.22;90.69;96918.59;2072289;28;20766;-60
2022/02/01 05:20:41;;;;;;;20.30;3.20;;;;;;;-0.22;91.55;96921.19;2072305;28;20667;-60
2022/02/01 05:21:45;;;;;;;19.75;3.40;;;;;;;-0.27;91.10;96917.88;2072702;28;20241;-60
2022/02/01 05:22:47;;;;;;;16.73;3.53;;;;;;;-0.26;91.19;96928.13;2072402;28;20204;-60
2022/02/01 05:23:50;;;;;;;22.80;2.80;;;;;;;-0.32;91.92;96914.53;2072512;28;20204;-61
2022/02/01 05:24:55;;;;;;;13.85;2.72;;;;;;;-0.25;91.78;96928.97;2072007;28;20696;-61
2022/02/01 05:25:57;;;;;;;10.68;2.75;;;;;;;-0.31;92.17;96929.13;2072053;28;20267;-60
2022/02/01 05:27:01;;;;;;;8.50;1.63;;;;;;;-0.37;91.51;96924.94;2072379;28;20199;-60
2022/02/01 05:28:03;;;;;;;11.20;2.25;;;;;;;-0.26;92.06;96945.28;2072480;28;20613;-60
2022/02/01 05:29:05;;;;;;;19.85;3.60;;;;;;;-0.23;92.72;96948.66;2071139;28;20204;-61
2022/02/01 05:30:07;;;;;;;23.27;4.20;;;;;;;-0.23;92.04;96948.66;2072739;28;20540;-61
2022/02/01 05:31:09;;;;;;;10.65;2.47;;;;;;;-0.24;92.16;96940.97;2072279;28;20205;-60
2022/02/01 05:32:24;;;;;;;14.68;2.50;;;;;;;-0.24;91.22;96954.66;2072335;28;20263;-60
2022/02/01 05:33:25;;;;;;;13.43;2.40;;;;;;;-0.30;91.63;96953.97;2071331;28;20201;-60
2022/02/01 05:34:27;;;;;;;25.25;2.35;;;;;;;-0.14;91.69;96969.94;2072277;28;20236;-60
2022/02/01 05:35:34;;;;;;;20.25;2.80;;;;;;;-0.22;92.52;96955.53;2072362;28;20254;-61
2022/02/01 05:36:36;;;;;;;16.73;2.90;;;;;;;-0.21;92.08;96959.78;2071624;28;20215;-60
2022/02/01 05:37:38;;;;;;;17.00;3.83;;;;;;;-0.25;91.38;96963.28;2072691;28;20218;-60
2022/02/01 05:38:40;;;;;;;17.95;2.53;;;;;;;-0.27;91.62;96959.91;2071307;28;20205;-61
2022/02/01 05:39:42;;;;;;;17.80;4.18;;;;;;;-0.28;91.03;96960.75;2072135;28;20272;-60
2022/02/01 05:40:43;;;;;;;21.25;2.47;;;;;;;-0.29;91.73;96953.09;2072546;28;20212;-60
2022/02/01 05:41:45;;;;;;;18.60;2.50;;;;;;;-0.25;91.53;96952.16;2072470;28;20236;-61
2022/02/01 05:43:02;;;;;;;18.45;2.65;;;;;;;-0.27;91.77;96959.91;2072697;28;20596;-61
2022/02/01 05:44:04;;;;;;;15.80;3.35;;;;;;;-0.30;90.76;96954.78;2071763;28;20629;-61
2022/02/01 05:45:06;;;;;;;14.20;2.20;;;;;;;-0.50;91.49;96931.19;2072626;28;20280;-61
2022/02/01 05:46:07;;;;;;;18.92;2.30;;;;;;;-0.32;91.54;96956.56;2072584;28;20204;-61
2022/02/01 05:47:09;;;;;;;12.13;2.40;;;;;;;-0.29;91.67;96963.41;2072561;28;20195;-61
2022/02/01 05:48:11;;;;;;;16.48;2.45;;;;;;;-0.26;91.28;96965.88;2072460;28;20204;-61
2022/02/01 05:49:13;;;;;;;18.88;2.47;;;;;;;-0.41;90.36;96956.75;2072164;28;20202;-61
2022/02/01 05:50:15;;;;;;;10.23;2.47;;;;;;;-0.38;90.83;96961.81;2072427;28;20201;-60
2022/02/01 05:51:17;;;;;;;10.57;2.80;;;;;;;-0.41;91.12;96949.03;2075318;28;20197;-61
2022/02/01 05:52:18;;;;;;;19.58;3.00;;;;;;;-0.38;91.29;96956.69;2075741;28;20200;-60
2022/02/01 05:53:20;;;;;;;23.42;2.47;;;;;;;-0.60;91.12;96915.09;2072514;28;20202;-61
2022/02/01 05:54:25;;;;;;;16.48;3.20;;;;;;;-0.37;91.12;96948.09;2071265;28;20233;-61
2022/02/01 05:55:26;;;;;;;20.30;3.30;;;;;;;-0.37;90.51;96940.38;2071172;28;20208;-61
2022/02/01 05:56:28;;;;;;;11.57;2.40;;;;;;;-0.37;90.90;96936.94;2072071;28;20217;-61
2022/02/01 05:57:29;;;;;;;18.30;2.75;;;;;;;-0.38;90.78;96930.94;2072733;28;20540;-61
2022/02/01 05:58:31;;;;;;;16.42;2.53;;;;;;;-0.38;91.27;96948.97;2072691;28;20537;-61
2022/02/01 05:59:33;;;;;;;24.42;2.20;;;;;;;-0.43;90.23;96940.50;2072356;28;20277;-61
2022/02/01 06:00:35;;;;;;;10.05;2.53;;;;;;;-0.38;90.10;96938.66;2072762;28;20208;-60
2022/02/01 06:01:36;;;;;;;7.78;2.15;;;;;;;-0.36;90.02;96939.47;2071288;28;20206;-61
2022/02/01 06:02:38;;;;;;;7.45;2.13;;;;;;;-0.43;89.71;96927.63;2072705;28;20246;-61
2022/02/01 06:03:40;;;;;;;13.52;2.53;;;;;;;-0.48;90.55;96926.88;2072402;28;20197;-61
2022/02/01 06:04:42;;;;;;;21.33;2.13;;;;;;;-0.46;89.90;96936.25;2072178;28;20769;-61
2022/02/01 06:05:43;;;;;;;12.00;2.60;;;;;;;-0.54;90.62;96934.72;2072708;28;20660;-60
2022/02/01 06:06:45;;;;;;;9.15;2.00;;;;;;;-0.43;89.20;96945.66;2072626;28;20192;-60